Time;durP1;ratioP1;P1;durP2;ratioP2;P2;SDS_P1;SDS_P2;PMS_P1;PMS_P2;Temp;Humidity;BMP_temperature;BMP_pressure;BME280_temperature;BME280_humidity;BME280_pressure;Samples;Min_cycle;Max_cycle;Signal;HPM_P1;HPM_P2
2022/03/24 00:00:24;;;;;;;12.90;8.10;;;1.60;99.90;;;;;;5054703;28;20017;-58
2022/03/24 00:02:50;;;;;;;10.02;8.13;;;1.60;99.90;;;;;;5054524;28;20033;-59
2022/03/24 00:05:16;;;;;;;12.30;8.25;;;1.60;99.90;;;;;;5054619;28;20029;-59
2022/03/24 00:07:41;;;;;;;10.68;8.05;;;1.70;99.90;;;;;;5054520;28;20346;-59
2022/03/24 00:10:08;;;;;;;12.02;9.02;;;1.60;99.90;;;;;;5054610;28;20373;-58
2022/03/24 00:12:34;;;;;;;9.98;7.55;;;1.70;99.90;;;;;;5054321;28;20599;-59
2022/03/24 00:15:04;;;;;;;9.82;8.48;;;1.70;99.90;;;;;;5054364;28;20060;-58
2022/03/24 00:17:30;;;;;;;13.00;9.00;;;1.70;99.90;;;;;;5054339;28;20113;-59
2022/03/24 00:19:56;;;;;;;7.78;7.00;;;1.70;99.90;;;;;;5054368;28;20096;-58
2022/03/24 00:22:23;;;;;;;10.45;7.90;;;1.60;99.90;;;;;;5054356;28;20025;-59
2022/03/24 00:25:00;;;;;;;7.97;7.18;;;1.70;99.90;;;;;;5054443;28;20044;-59
2022/03/24 00:27:27;;;;;;;12.13;8.10;;;1.70;99.90;;;;;;5054049;28;20025;-59
2022/03/24 00:29:52;;;;;;;15.07;7.88;;;1.70;99.90;;;;;;5054123;28;20071;-57
2022/03/24 00:32:18;;;;;;;8.82;7.45;;;1.70;99.90;;;;;;5054160;28;20114;-58
2022/03/24 00:34:45;;;;;;;9.45;7.22;;;1.60;99.90;;;;;;5054091;28;20029;-58
2022/03/24 00:37:10;;;;;;;10.48;7.93;;;1.60;99.90;;;;;;5054108;28;20349;-59
2022/03/24 00:39:36;;;;;;;13.88;7.63;;;1.60;99.90;;;;;;5054033;28;20025;-59
2022/03/24 00:42:09;;;;;;;16.17;7.38;;;1.60;99.90;;;;;;5053900;28;20115;-59
2022/03/24 00:44:36;;;;;;;8.57;7.25;;;1.40;99.90;;;;;;5053846;28;20025;-59
2022/03/24 00:47:02;;;;;;;9.00;7.60;;;1.40;99.90;;;;;;5052866;28;20503;-57
2022/03/24 00:49:28;;;;;;;8.43;7.55;;;1.30;99.90;;;;;;5052998;28;20357;-58
2022/03/24 00:51:54;;;;;;;10.38;8.80;;;1.10;99.90;;;;;;5053770;28;20090;-58
2022/03/24 00:54:20;;;;;;;10.80;8.25;;;1.10;99.90;;;;;;5053513;28;20032;-59
2022/03/24 00:56:46;;;;;;;9.38;7.40;;;1.10;99.90;;;;;;5053722;28;20087;-59
2022/03/24 00:59:12;;;;;;;8.80;7.63;;;1.10;99.90;;;;;;5053494;28;20668;-58
2022/03/24 01:01:39;;;;;;;12.90;8.13;;;1.10;99.90;;;;;;5053680;28;20036;-58
2022/03/24 01:04:06;;;;;;;10.07;8.52;;;1.00;99.90;;;;;;5053465;28;20021;-57
2022/03/24 01:06:34;;;;;;;11.25;8.57;;;1.00;99.90;;;;;;5053439;28;20048;-59
2022/03/24 01:09:03;;;;;;;9.10;7.97;;;1.00;99.90;;;;;;5053326;28;20029;-58
2022/03/24 01:11:30;;;;;;;16.35;8.77;;;0.90;99.90;;;;;;5053331;28;20021;-58
2022/03/24 01:13:56;;;;;;;10.93;7.93;;;1.00;99.90;;;;;;5053046;28;20099;-59
2022/03/24 01:16:23;;;;;;;10.48;7.85;;;0.90;99.90;;;;;;5053295;28;20459;-59
2022/03/24 01:18:50;;;;;;;15.90;9.10;;;0.90;99.90;;;;;;5053360;28;20037;-58
2022/03/24 01:21:16;;;;;;;13.38;8.52;;;0.90;99.90;;;;;;5053103;28;20028;-59
2022/03/24 01:23:46;;;;;;;11.10;8.50;;;0.80;99.90;;;;;;5053145;28;20036;-59
2022/03/24 01:26:12;;;;;;;15.18;8.27;;;0.80;99.90;;;;;;5051589;28;20029;-59
2022/03/24 01:28:41;;;;;;;11.30;8.80;;;0.80;99.90;;;;;;5052965;28;20021;-59
2022/03/24 01:31:08;;;;;;;8.40;7.20;;;0.80;99.90;;;;;;5053005;28;20416;-58
2022/03/24 01:33:37;;;;;;;14.63;8.27;;;0.80;99.90;;;;;;5051714;28;20029;-58
2022/03/24 01:36:06;;;;;;;10.48;8.18;;;0.80;99.90;;;;;;5052844;28;20091;-58
2022/03/24 01:38:32;;;;;;;11.63;8.15;;;0.80;99.90;;;;;;5052914;28;20025;-58
2022/03/24 01:40:58;;;;;;;9.18;7.93;;;0.70;99.90;;;;;;5052658;28;20080;-58
2022/03/24 01:43:25;;;;;;;9.85;8.00;;;0.60;99.90;;;;;;5052815;28;20020;-58
2022/03/24 01:45:50;;;;;;;11.40;7.65;;;0.60;99.90;;;;;;5051450;28;20044;-59
2022/03/24 01:48:16;;;;;;;11.55;7.75;;;0.50;99.90;;;;;;5052549;28;20388;-58
2022/03/24 01:50:42;;;;;;;10.15;8.32;;;0.60;99.90;;;;;;5052621;28;20028;-58
2022/03/24 01:53:09;;;;;;;13.77;7.72;;;0.60;99.90;;;;;;5052569;28;20033;-59
2022/03/24 01:55:35;;;;;;;14.70;8.32;;;0.50;99.90;;;;;;5052433;28;20040;-58
2022/03/24 01:58:02;;;;;;;11.27;7.85;;;0.60;99.90;;;;;;5051197;28;20033;-58
2022/03/24 02:00:28;;;;;;;18.13;8.13;;;0.60;99.90;;;;;;5052476;28;20048;-58
2022/03/24 02:02:55;;;;;;;8.70;7.80;;;0.60;99.90;;;;;;5052315;28;20033;-58
2022/03/24 02:05:20;;;;;;;10.68;7.88;;;0.60;99.90;;;;;;5052275;28;20025;-58
2022/03/24 02:07:46;;;;;;;10.48;8.88;;;0.60;99.90;;;;;;5052147;28;20028;-59
2022/03/24 02:10:12;;;;;;;10.10;7.93;;;0.60;99.90;;;;;;5050704;28;20111;-58
2022/03/24 02:12:37;;;;;;;10.32;8.35;;;0.60;99.90;;;;;;5050321;28;20024;-58
2022/03/24 02:15:04;;;;;;;15.45;8.40;;;0.60;99.90;;;;;;5051947;28;20025;-58
2022/03/24 02:17:30;;;;;;;9.82;8.15;;;0.50;99.90;;;;;;5052074;28;20017;-59
2022/03/24 02:19:59;;;;;;;8.35;7.50;;;0.50;99.90;;;;;;5051311;28;20032;-58
2022/03/24 02:22:28;;;;;;;16.27;8.40;;;0.40;99.90;;;;;;5051986;28;20487;-59
2022/03/24 02:24:55;;;;;;;14.88;8.23;;;0.30;99.90;;;;;;5051563;28;20021;-58
2022/03/24 02:27:22;;;;;;;8.95;8.02;;;0.40;99.90;;;;;;5052107;28;20017;-58
2022/03/24 02:29:49;;;;;;;11.10;8.55;;;0.40;99.90;;;;;;5051562;28;20017;-59
2022/03/24 02:32:23;;;;;;;10.45;7.80;;;0.40;99.90;;;;;;5051845;28;20118;-59
2022/03/24 02:34:51;;;;;;;16.42;8.30;;;0.40;99.90;;;;;;5051134;28;20036;-58
2022/03/24 02:37:20;;;;;;;9.38;7.63;;;0.50;99.90;;;;;;5051141;28;20027;-58
2022/03/24 02:39:54;;;;;;;11.50;7.95;;;0.40;99.90;;;;;;5051741;28;20025;-58
2022/03/24 02:42:23;;;;;;;12.38;8.48;;;0.40;99.90;;;;;;5051728;28;20079;-58
2022/03/24 02:44:55;;;;;;;11.20;8.13;;;0.20;99.90;;;;;;5051640;28;20025;-58
2022/03/24 02:47:21;;;;;;;13.98;8.32;;;0.20;99.90;;;;;;5051591;28;20106;-58
2022/03/24 02:49:49;;;;;;;13.90;8.32;;;0.20;99.90;;;;;;5051451;28;20021;-58
2022/03/24 02:52:15;;;;;;;9.20;7.53;;;0.20;99.90;;;;;;5050305;28;20021;-58
2022/03/24 02:54:41;;;;;;;8.80;7.65;;;0.20;99.90;;;;;;5051429;28;20112;-59
2022/03/24 02:57:08;;;;;;;9.73;7.68;;;0.20;99.90;;;;;;5051599;28;20017;-58
2022/03/24 02:59:34;;;;;;;9.65;8.43;;;0.10;99.90;;;;;;5051554;28;20104;-59
2022/03/24 03:02:05;;;;;;;11.02;8.38;;;0.10;99.90;;;;;;5051422;28;20531;-59
2022/03/24 03:04:34;;;;;;;9.38;7.93;;;0.10;99.90;;;;;;5051493;28;20522;-58
2022/03/24 03:07:02;;;;;;;9.55;8.10;;;0.00;99.90;;;;;;5051364;28;20048;-58
2022/03/24 03:09:29;;;;;;;10.13;8.15;;;0.00;99.90;;;;;;5051335;28;20060;-58
2022/03/24 03:11:56;;;;;;;10.02;8.45;;;-0.10;99.90;;;;;;5051387;28;20033;-57
2022/03/24 03:14:22;;;;;;;13.50;8.63;;;-0.10;99.90;;;;;;5051222;28;20043;-58
2022/03/24 03:16:48;;;;;;;9.63;7.80;;;-0.20;99.90;;;;;;5051339;28;20025;-59
2022/03/24 03:19:17;;;;;;;10.60;8.77;;;-0.30;99.90;;;;;;5051266;28;20040;-58
2022/03/24 03:21:43;;;;;;;12.60;9.35;;;-0.30;99.90;;;;;;5051290;28;20417;-58
2022/03/24 03:24:12;;;;;;;11.45;8.45;;;-0.20;99.90;;;;;;5051137;28;20033;-58
2022/03/24 03:26:39;;;;;;;10.52;8.13;;;-0.20;99.90;;;;;;5051252;28;20032;-58
2022/03/24 03:29:09;;;;;;;9.68;8.68;;;-0.20;99.90;;;;;;5051013;28;20049;-59
2022/03/24 03:31:35;;;;;;;14.73;7.78;;;-0.10;99.90;;;;;;5051469;28;20075;-59
2022/03/24 03:34:03;;;;;;;15.80;8.18;;;-0.10;99.90;;;;;;5055132;28;20350;-59
2022/03/24 03:36:29;;;;;;;13.45;8.30;;;-0.20;99.90;;;;;;5055118;28;20017;-58
2022/03/24 03:38:54;;;;;;;9.63;8.18;;;-0.20;99.90;;;;;;5055115;28;20095;-58
2022/03/24 03:41:22;;;;;;;10.45;8.18;;;-0.20;99.90;;;;;;5055063;28;20033;-58
2022/03/24 03:43:48;;;;;;;11.48;8.95;;;-0.20;99.90;;;;;;5054965;28;20040;-58
2022/03/24 03:46:14;;;;;;;13.40;8.70;;;-0.20;99.90;;;;;;5055036;28;20345;-59
2022/03/24 03:48:40;;;;;;;17.85;9.23;;;-0.20;99.90;;;;;;5054752;28;20079;-59
2022/03/24 03:51:08;;;;;;;15.25;8.77;;;-0.20;99.90;;;;;;5054881;28;20021;-59
2022/03/24 03:53:35;;;;;;;11.65;8.18;;;-0.30;99.90;;;;;;5054881;28;20010;-58
2022/03/24 03:56:02;;;;;;;13.13;8.68;;;-0.40;99.90;;;;;;5054785;28;20044;-58
2022/03/24 03:58:28;;;;;;;13.93;9.05;;;-0.60;99.90;;;;;;5054664;28;20021;-58
2022/03/24 04:00:55;;;;;;;14.18;8.80;;;-0.50;99.90;;;;;;5054725;28;20029;-58
2022/03/24 04:03:23;;;;;;;15.80;8.95;;;-0.50;99.90;;;;;;5054718;28;20028;-59
2022/03/24 04:05:53;;;;;;;12.48;8.60;;;-0.50;99.90;;;;;;5054824;28;20472;-59
2022/03/24 04:08:20;;;;;;;10.52;8.27;;;-0.50;99.90;;;;;;5054509;28;20067;-59
2022/03/24 04:10:46;;;;;;;10.20;7.95;;;-0.50;99.90;;;;;;5054553;28;20021;-58
2022/03/24 04:13:12;;;;;;;12.02;8.13;;;-0.50;99.90;;;;;;5054404;28;20047;-59
2022/03/24 04:15:41;;;;;;;14.88;9.20;;;-0.60;99.90;;;;;;5054514;28;20107;-58
2022/03/24 04:18:06;;;;;;;14.32;9.23;;;-0.70;99.90;;;;;;5054358;28;20025;-58
2022/03/24 04:20:34;;;;;;;12.20;9.15;;;-0.70;99.90;;;;;;5054422;28;20043;-58
2022/03/24 04:23:01;;;;;;;15.48;8.88;;;-0.70;99.90;;;;;;5053491;28;20533;-58
2022/03/24 04:25:27;;;;;;;11.85;8.90;;;-0.60;99.90;;;;;;5053472;28;20502;-59
2022/03/24 04:27:54;;;;;;;10.20;8.43;;;-0.60;99.90;;;;;;5053882;28;20029;-58
2022/03/24 04:30:19;;;;;;;12.07;9.63;;;-0.60;99.90;;;;;;5054089;28;20029;-58
2022/03/24 04:32:45;;;;;;;13.88;8.48;;;-0.60;99.90;;;;;;5054188;28;20025;-58
2022/03/24 04:35:14;;;;;;;13.50;9.98;;;-0.60;99.90;;;;;;5053984;28;20022;-58
2022/03/24 04:37:40;;;;;;;18.05;9.88;;;-0.60;99.90;;;;;;5054003;28;20674;-59
2022/03/24 04:40:07;;;;;;;13.75;9.25;;;-0.70;99.90;;;;;;5053818;28;20124;-59
2022/03/24 04:42:33;;;;;;;12.27;9.35;;;-0.70;99.90;;;;;;5053629;28;20016;-59
2022/03/24 04:44:59;;;;;;;10.77;9.45;;;-0.70;99.90;;;;;;5053813;28;20033;-59
2022/03/24 04:47:26;;;;;;;19.20;9.60;;;-0.70;99.90;;;;;;5053836;28;20013;-59
2022/03/24 04:49:51;;;;;;;13.27;9.00;;;-0.70;99.90;;;;;;5052410;28;20045;-58
2022/03/24 04:52:19;;;;;;;15.63;9.70;;;-0.80;99.90;;;;;;5053750;28;20033;-59
2022/03/24 04:54:45;;;;;;;11.88;9.15;;;-0.80;99.90;;;;;;5053648;28;20103;-58
2022/03/24 04:57:11;;;;;;;14.32;9.85;;;-0.80;99.90;;;;;;5053639;28;20040;-59
2022/03/24 04:59:37;;;;;;;11.27;8.70;;;-0.70;99.90;;;;;;5053487;28;20025;-59
2022/03/24 05:02:03;;;;;;;9.65;8.65;;;-0.70;99.90;;;;;;5053486;28;20150;-59
2022/03/24 05:04:28;;;;;;;16.52;9.38;;;-0.70;99.90;;;;;;5053528;28;20116;-59
2022/03/24 05:06:54;;;;;;;14.02;9.70;;;-0.80;99.90;;;;;;5053558;28;20032;-59
2022/03/24 05:09:20;;;;;;;15.30;10.25;;;-0.80;99.90;;;;;;5053087;28;20435;-59
2022/03/24 05:11:45;;;;;;;11.43;9.32;;;-0.80;99.90;;;;;;5053375;28;20083;-58
2022/03/24 05:14:13;;;;;;;18.50;9.43;;;-0.90;99.90;;;;;;5052854;28;20120;-59
2022/03/24 05:16:39;;;;;;;11.25;8.98;;;-0.80;99.90;;;;;;5053057;28;20033;-59
2022/03/24 05:19:05;;;;;;;15.52;9.02;;;-0.80;99.90;;;;;;5053049;28;20468;-59
2022/03/24 05:21:32;;;;;;;15.65;10.40;;;-0.70;99.90;;;;;;5053124;28;20090;-60
2022/03/24 05:24:02;;;;;;;18.05;10.18;;;-0.70;99.90;;;;;;5053070;28;20132;-59
2022/03/24 05:26:28;;;;;;;13.18;10.27;;;-0.70;99.90;;;;;;5052755;28;20419;-59
2022/03/24 05:28:54;;;;;;;16.50;10.50;;;-0.70;99.90;;;;;;5051298;28;20041;-59
2022/03/24 05:31:21;;;;;;;19.50;10.18;;;-0.60;99.90;;;;;;5052222;28;20021;-59
2022/03/24 05:33:47;;;;;;;15.95;10.48;;;-0.60;99.90;;;;;;5052666;28;20501;-59
2022/03/24 05:36:13;;;;;;;16.00;9.50;;;-0.50;99.90;;;;;;5052762;28;20017;-60
2022/03/24 05:38:39;;;;;;;29.83;10.15;;;-0.40;99.90;;;;;;5053129;28;20043;-60
2022/03/24 05:41:05;;;;;;;15.55;10.90;;;-0.40;99.90;;;;;;5052901;28;20036;-59
2022/03/24 05:43:31;;;;;;;16.15;9.55;;;-0.40;99.90;;;;;;5051364;28;20038;-59
2022/03/24 05:45:57;;;;;;;16.75;10.48;;;-0.40;99.90;;;;;;5052473;28;20688;-59
2022/03/24 05:48:23;;;;;;;23.60;13.27;;;-0.30;99.90;;;;;;5052085;28;20021;-60
2022/03/24 05:50:49;;;;;;;19.02;12.63;;;-0.20;99.90;;;;;;5052426;28;20021;-60
2022/03/24 05:53:15;;;;;;;19.67;12.57;;;-0.10;99.90;;;;;;5052333;28;20021;-59
2022/03/24 05:55:42;;;;;;;31.98;15.52;;;-0.10;99.90;;;;;;5051187;28;20017;-59
2022/03/24 05:58:08;;;;;;;27.77;15.48;;;0.00;99.90;;;;;;5052153;28;20074;-59
2022/03/24 06:00:39;;;;;;;30.70;16.77;;;0.10;99.90;;;;;;5052478;28;20025;-59
2022/03/24 06:03:06;;;;;;;25.25;14.95;;;0.20;99.90;;;;;;5052343;28;20029;-59
2022/03/24 06:05:31;;;;;;;22.83;13.95;;;0.20;99.90;;;;;;5052317;28;20028;-59
2022/03/24 06:08:00;;;;;;;21.00;12.98;;;0.40;99.90;;;;;;5052072;28;20033;-59
2022/03/24 06:10:27;;;;;;;19.67;13.40;;;0.50;99.90;;;;;;5052021;28;20075;-59
2022/03/24 06:12:53;;;;;;;16.48;12.50;;;0.60;99.90;;;;;;5050949;28;20380;-59
2022/03/24 06:15:20;;;;;;;32.40;12.98;;;0.80;99.90;;;;;;5051235;28;20476;-59
2022/03/24 06:17:46;;;;;;;17.92;11.68;;;0.90;99.90;;;;;;5051733;28;20108;-59
2022/03/24 06:20:12;;;;;;;21.80;13.95;;;1.10;99.90;;;;;;5051800;28;20100;-59
2022/03/24 06:22:53;;;;;;;21.13;13.20;;;1.20;99.90;;;;;;5050698;28;20766;-59
2022/03/24 06:25:19;;;;;;;26.20;12.80;;;1.20;99.90;;;;;;5051872;28;20102;-59
2022/03/24 06:27:55;;;;;;;18.42;12.68;;;1.40;99.90;;;;;;5051577;28;20017;-59
2022/03/24 06:30:21;;;;;;;19.92;12.82;;;1.60;99.90;;;;;;5051899;28;20040;-59
2022/03/24 06:32:47;;;;;;;29.45;16.75;;;1.70;99.90;;;;;;5051763;28;20021;-59
2022/03/24 06:35:13;;;;;;;28.58;16.27;;;1.90;99.90;;;;;;5052046;28;20025;-59
2022/03/24 06:37:40;;;;;;;27.80;14.95;;;2.00;99.90;;;;;;5051635;28;20084;-59
2022/03/24 06:40:13;;;;;;;25.23;13.20;;;2.20;99.90;;;;;;5051678;28;20017;-59
2022/03/24 06:46:03;;;;;;;43.03;23.83;;;2.60;99.90;;;;;;5050185;28;20412;-59
2022/03/24 06:48:29;;;;;;;55.47;25.92;;;2.80;99.90;;;;;;5050292;28;20097;-59
2022/03/24 06:50:55;;;;;;;31.52;19.83;;;3.00;99.90;;;;;;5050718;28;20033;-59
2022/03/24 06:53:21;;;;;;;46.72;18.85;;;3.20;99.90;;;;;;5050662;28;20021;-59
2022/03/24 06:55:46;;;;;;;31.02;16.80;;;3.30;99.90;;;;;;5049826;28;20029;-59
2022/03/24 06:58:12;;;;;;;29.98;17.05;;;3.60;99.90;;;;;;5049795;28;20033;-59
2022/03/24 07:00:39;;;;;;;20.00;12.40;;;3.80;99.90;;;;;;5050293;28;20021;-59
2022/03/24 07:03:05;;;;;;;25.77;12.73;;;3.90;99.90;;;;;;5050006;28;20460;-59
2022/03/24 07:05:30;;;;;;;15.25;10.63;;;4.20;99.90;;;;;;5051234;28;20163;-59
2022/03/24 07:07:56;;;;;;;9.73;8.27;;;4.40;99.90;;;;;;5050906;28;20056;-59
2022/03/24 07:10:22;;;;;;;13.73;8.05;;;4.60;99.90;;;;;;5050879;28;20040;-59
2022/03/24 07:12:49;;;;;;;8.98;6.93;;;4.80;99.90;;;;;;5049562;28;20045;-59
2022/03/24 07:15:15;;;;;;;13.15;7.78;;;5.00;99.90;;;;;;5051020;28;20435;-59
2022/03/24 07:17:41;;;;;;;10.40;7.90;;;5.20;99.90;;;;;;5050900;28;20021;-59
2022/03/24 07:20:08;;;;;;;9.30;7.68;;;5.50;99.90;;;;;;5051118;28;20024;-59
2022/03/24 07:22:35;;;;;;;10.25;8.02;;;5.60;99.90;;;;;;5051164;28;20028;-59
2022/03/24 07:25:02;;;;;;;11.35;8.23;;;5.80;99.90;;;;;;5051005;28;20025;-59
2022/03/24 07:27:28;;;;;;;10.57;7.57;;;5.90;99.90;;;;;;5051196;28;20021;-59
2022/03/24 07:29:54;;;;;;;10.40;7.35;;;6.10;99.90;;;;;;5050550;28;20032;-59
2022/03/24 07:32:20;;;;;;;10.43;7.28;;;6.20;99.90;;;;;;5050462;28;20029;-59
2022/03/24 07:34:46;;;;;;;8.35;7.22;;;6.40;99.90;;;;;;5050946;28;20025;-59
2022/03/24 07:37:12;;;;;;;9.23;7.38;;;6.60;99.90;;;;;;5050679;28;20021;-59
2022/03/24 07:39:38;;;;;;;11.70;8.10;;;6.70;99.90;;;;;;5050937;28;20029;-59
2022/03/24 07:42:05;;;;;;;12.73;7.97;;;6.90;99.90;;;;;;5049328;28;20036;-59
2022/03/24 07:44:31;;;;;;;11.07;8.55;;;7.00;99.90;;;;;;5050581;28;20048;-59
2022/03/24 07:46:56;;;;;;;13.38;7.45;;;7.30;99.90;;;;;;5050532;28;20071;-59
2022/03/24 07:49:22;;;;;;;9.70;7.18;;;7.40;99.90;;;;;;5050988;28;20543;-59
2022/03/24 07:51:49;;;;;;;9.02;7.57;;;7.60;99.90;;;;;;5050636;28;20031;-59
2022/03/24 07:54:14;;;;;;;9.07;7.30;;;7.80;99.80;;;;;;5050203;28;20086;-59
2022/03/24 07:56:41;;;;;;;9.23;7.43;;;8.10;99.90;;;;;;5050925;28;20456;-59
2022/03/24 07:59:06;;;;;;;7.38;6.07;;;8.20;98.50;;;;;;5050616;28;20083;-59
2022/03/24 08:01:36;;;;;;;7.85;5.72;;;8.40;97.10;;;;;;5050474;28;20049;-59
2022/03/24 08:04:05;;;;;;;13.65;6.95;;;8.70;96.90;;;;;;5049934;28;20029;-59
2022/03/24 08:06:32;;;;;;;6.30;5.60;;;8.90;95.60;;;;;;5048556;28;20481;-59
2022/03/24 08:08:58;;;;;;;15.00;8.32;;;9.10;94.50;;;;;;5049760;28;20094;-59
2022/03/24 08:11:27;;;;;;;9.23;5.55;;;9.40;94.00;;;;;;5048621;28;20021;-60
2022/03/24 08:13:55;;;;;;;10.00;5.53;;;9.60;93.20;;;;;;5049499;28;20037;-60
2022/03/24 08:16:25;;;;;;;9.32;5.93;;;9.70;92.90;;;;;;5050100;28;20013;-59
2022/03/24 08:18:51;;;;;;;7.65;6.20;;;9.90;92.30;;;;;;5051667;28;20036;-59
2022/03/24 08:21:17;;;;;;;6.85;5.05;;;10.10;91.50;;;;;;5053517;28;20032;-59
2022/03/24 08:23:43;;;;;;;5.63;5.07;;;10.30;91.70;;;;;;5053117;28;20100;-59
2022/03/24 08:26:09;;;;;;;7.55;6.35;;;10.50;91.20;;;;;;5053417;28;20079;-60
2022/03/24 08:28:35;;;;;;;12.52;5.60;;;10.70;89.60;;;;;;5053424;28;20036;-60
2022/03/24 08:31:02;;;;;;;6.65;4.88;;;10.90;90.00;;;;;;5052665;28;20051;-60
2022/03/24 08:33:28;;;;;;;6.07;5.05;;;11.10;86.70;;;;;;5053127;28;20028;-60
2022/03/24 08:35:54;;;;;;;12.57;5.65;;;11.20;86.00;;;;;;5053246;28;20021;-60
2022/03/24 08:38:19;;;;;;;5.75;5.05;;;11.40;84.50;;;;;;5054048;28;20029;-60
2022/03/24 08:40:45;;;;;;;10.52;5.22;;;11.60;83.70;;;;;;5053915;28;20116;-59
2022/03/24 08:43:11;;;;;;;7.15;5.05;;;11.70;81.50;;;;;;5053872;28;20519;-59
2022/03/24 08:45:37;;;;;;;12.25;5.15;;;11.90;81.30;;;;;;5053492;28;20369;-59
2022/03/24 08:48:03;;;;;;;16.58;5.25;;;12.10;77.10;;;;;;5052328;28;20021;-60
2022/03/24 08:50:29;;;;;;;8.98;5.43;;;12.30;77.60;;;;;;5052311;28;20033;-60
2022/03/24 08:52:55;;;;;;;7.22;5.70;;;12.50;76.30;;;;;;5052145;28;20021;-60
2022/03/24 08:55:22;;;;;;;11.00;5.68;;;12.60;74.00;;;;;;5051820;28;20669;-60
2022/03/24 08:57:48;;;;;;;8.27;5.57;;;12.80;74.80;;;;;;5051636;28;20032;-60
2022/03/24 09:00:16;;;;;;;7.35;5.70;;;13.00;72.10;;;;;;5051930;28;20070;-60
2022/03/24 09:02:48;;;;;;;15.98;6.22;;;13.10;69.10;;;;;;5051854;28;20048;-60
2022/03/24 09:05:16;;;;;;;13.85;5.68;;;13.20;68.10;;;;;;5052467;28;20017;-60
2022/03/24 09:07:42;;;;;;;8.52;5.82;;;13.40;65.90;;;;;;5052146;28;20021;-60
2022/03/24 09:10:10;;;;;;;7.28;5.40;;;13.60;66.50;;;;;;5052365;28;20626;-60
2022/03/24 09:12:38;;;;;;;8.48;5.43;;;13.80;64.40;;;;;;5052029;28;20059;-60
2022/03/24 09:15:08;;;;;;;13.15;6.40;;;14.10;62.80;;;;;;5052237;28;20017;-60
2022/03/24 09:17:35;;;;;;;9.48;6.85;;;14.30;61.50;;;;;;5052362;28;20377;-60
2022/03/24 09:20:09;;;;;;;11.38;6.93;;;14.60;60.10;;;;;;5049910;28;20032;-60
2022/03/24 09:22:39;;;;;;;10.95;6.68;;;14.60;57.80;;;;;;5052391;28;20380;-60
2022/03/24 09:25:06;;;;;;;10.18;6.05;;;14.80;56.80;;;;;;5051798;28;20040;-60
2022/03/24 09:27:32;;;;;;;11.57;8.18;;;14.80;57.00;;;;;;5050706;28;20135;-60
2022/03/24 09:29:57;;;;;;;9.23;7.20;;;15.00;55.70;;;;;;5050953;28;20067;-60
2022/03/24 09:32:24;;;;;;;13.02;8.50;;;15.30;53.40;;;;;;5053020;28;20052;-60
2022/03/24 09:34:50;;;;;;;8.90;7.20;;;15.50;52.90;;;;;;5052963;28;20025;-60
2022/03/24 09:37:18;;;;;;;26.65;19.17;;;15.80;52.20;;;;;;5053085;28;20040;-60
2022/03/24 09:39:44;;;;;;;16.98;7.40;;;16.10;51.90;;;;;;5052638;28;20021;-60
2022/03/24 09:42:11;;;;;;;13.15;7.53;;;16.40;51.30;;;;;;5052843;28;20154;-60
2022/03/24 09:44:37;;;;;;;16.48;7.78;;;16.30;48.60;;;;;;5052823;28;20029;-60
2022/03/24 09:47:03;;;;;;;10.43;7.80;;;16.60;47.80;;;;;;5051388;28;20366;-60
2022/03/24 09:49:30;;;;;;;14.45;7.97;;;16.20;45.90;;;;;;5052639;28;20029;-60
2022/03/24 09:51:56;;;;;;;10.93;7.65;;;16.60;45.30;;;;;;5051503;28;20025;-60
2022/03/24 09:54:22;;;;;;;13.73;8.07;;;17.00;45.50;;;;;;5051540;28;20021;-60
2022/03/24 09:56:47;;;;;;;13.57;7.80;;;17.00;47.20;;;;;;5052047;28;20086;-60
2022/03/24 09:59:13;;;;;;;10.73;7.40;;;17.00;44.90;;;;;;5052463;28;20017;-60
2022/03/24 10:01:40;;;;;;;9.35;8.30;;;17.10;44.00;;;;;;5052388;28;20368;-60
2022/03/24 10:04:07;;;;;;;9.93;7.70;;;17.50;41.80;;;;;;5052225;28;20029;-60
2022/03/24 10:06:35;;;;;;;10.18;7.97;;;17.70;40.50;;;;;;5052401;28;20108;-60
2022/03/24 10:09:02;;;;;;;9.13;7.75;;;18.00;39.90;;;;;;5052328;28;20025;-60
2022/03/24 10:11:28;;;;;;;11.07;8.35;;;18.10;39.80;;;;;;5051920;28;20029;-60
2022/03/24 10:13:57;;;;;;;12.30;8.98;;;18.00;39.70;;;;;;5051957;28;20049;-60
2022/03/24 10:16:43;;;;;;;9.10;8.20;;;18.00;38.80;;;;;;5052275;28;20024;-60
2022/03/24 10:19:16;;;;;;;14.32;8.60;;;18.10;39.10;;;;;;5052203;28;20068;-60
2022/03/24 10:21:45;;;;;;;9.32;8.35;;;18.30;37.90;;;;;;5051896;28;20028;-60
2022/03/24 10:24:13;;;;;;;12.18;8.02;;;18.30;36.90;;;;;;5051993;28;20033;-60
2022/03/24 10:26:49;;;;;;;13.23;9.05;;;18.50;36.40;;;;;;5051879;28;20021;-60
2022/03/24 10:29:23;;;;;;;14.38;9.70;;;18.90;36.30;;;;;;5051903;28;20103;-60
2022/03/24 10:31:57;;;;;;;12.52;9.18;;;19.10;35.30;;;;;;5051702;28;20029;-60
2022/03/24 10:34:40;;;;;;;16.33;9.20;;;18.70;34.60;;;;;;5051882;28;20400;-60
2022/03/24 10:37:08;;;;;;;16.88;11.13;;;18.40;36.10;;;;;;5051854;28;20360;-60
2022/03/24 10:39:36;;;;;;;9.25;8.27;;;18.90;36.10;;;;;;5051967;28;20029;-60
2022/03/24 10:42:19;;;;;;;16.85;10.05;;;19.50;35.90;;;;;;5051105;28;20032;-60
2022/03/24 10:45:06;;;;;;;16.77;9.77;;;19.50;34.40;;;;;;5051708;28;20052;-60
2022/03/24 10:47:55;;;;;;;10.63;8.50;;;19.60;36.30;;;;;;5051745;28;20032;-60
2022/03/24 10:50:32;;;;;;;26.70;13.25;;;19.90;36.10;;;;;;5051078;28;20466;-60
2022/03/24 10:53:04;;;;;;;13.02;9.13;;;20.10;32.90;;;;;;5051173;28;20036;-61
2022/03/24 10:55:39;;;;;;;26.25;15.73;;;20.10;33.80;;;;;;5051648;28;20082;-60
2022/03/24 10:58:09;;;;;;;11.77;8.32;;;19.80;30.00;;;;;;5051560;28;20025;-60
2022/03/24 11:00:39;;;;;;;10.27;8.43;;;20.40;31.70;;;;;;5051409;28;20036;-60
2022/03/24 11:03:05;;;;;;;13.68;8.38;;;21.20;30.20;;;;;;5051429;28;20380;-60
2022/03/24 11:05:31;;;;;;;9.77;7.82;;;21.30;30.00;;;;;;5051553;28;20021;-61
2022/03/24 11:07:57;;;;;;;9.10;7.10;;;22.50;29.50;;;;;;5051075;28;20052;-60
2022/03/24 11:10:23;;;;;;;9.90;8.90;;;23.70;28.70;;;;;;5050122;28;20048;-61
2022/03/24 11:13:10;;;;;;;11.82;8.35;;;24.00;27.40;;;;;;5051048;28;20045;-61
2022/03/24 11:15:39;;;;;;;18.67;11.48;;;24.50;26.80;;;;;;5051292;28;20028;-61
2022/03/24 11:18:07;;;;;;;12.05;8.45;;;24.90;26.90;;;;;;5051342;28;20106;-62
2022/03/24 11:20:38;;;;;;;12.65;7.47;;;26.40;27.30;;;;;;5051256;28;20523;-61
2022/03/24 11:23:24;;;;;;;14.35;6.93;;;27.40;26.80;;;;;;5051403;28;20451;-61
2022/03/24 11:25:53;;;;;;;13.88;7.15;;;27.70;25.60;;;;;;5051133;28;20017;-61
2022/03/24 11:28:21;;;;;;;8.65;6.75;;;27.00;25.00;;;;;;5051294;28;20098;-61
2022/03/24 11:30:47;;;;;;;6.72;6.07;;;26.80;24.70;;;;;;5051014;28;20400;-62
2022/03/24 11:33:13;;;;;;;13.50;7.00;;;27.20;25.30;;;;;;5051295;28;20025;-62
2022/03/24 11:35:40;;;;;;;12.70;7.00;;;27.40;26.20;;;;;;5051048;28;20040;-62
2022/03/24 11:38:05;;;;;;;8.13;6.78;;;27.80;25.40;;;;;;5051469;28;20048;-62
2022/03/24 11:40:36;;;;;;;10.48;6.90;;;28.00;25.60;;;;;;5051172;28;20056;-62
2022/03/24 11:43:15;;;;;;;13.57;8.15;;;27.90;24.90;;;;;;5050319;28;20037;-62
2022/03/24 11:45:50;;;;;;;10.68;7.63;;;27.90;26.20;;;;;;5050647;28;20412;-62
2022/03/24 11:48:30;;;;;;;13.25;7.70;;;28.00;25.70;;;;;;5051061;28;20364;-62
2022/03/24 11:50:56;;;;;;;12.32;7.80;;;27.90;25.80;;;;;;5050727;28;20021;-60
2022/03/24 11:53:27;;;;;;;21.48;7.70;;;28.20;26.40;;;;;;5051007;28;20079;-60
2022/03/24 11:55:59;;;;;;;13.63;7.53;;;28.50;26.20;;;;;;5054629;28;20031;-60
2022/03/24 11:58:26;;;;;;;21.63;7.00;;;27.70;25.60;;;;;;5054857;28;20052;-60
2022/03/24 12:00:52;;;;;;;9.23;7.18;;;28.50;25.90;;;;;;5054698;28;20108;-60
2022/03/24 12:03:42;;;;;;;12.32;7.97;;;28.70;25.60;;;;;;5054811;28;20528;-60
2022/03/24 12:06:09;;;;;;;12.75;7.07;;;27.40;24.40;;;;;;5054050;28;20454;-60
2022/03/24 12:08:59;;;;;;;9.90;7.75;;;27.50;24.70;;;;;;5054532;28;20024;-60
2022/03/24 12:11:31;;;;;;;17.10;7.55;;;27.30;25.70;;;;;;5054655;28;20013;-60
2022/03/24 12:14:02;;;;;;;9.83;7.07;;;27.90;25.80;;;;;;5054195;28;20134;-60
2022/03/24 12:16:29;;;;;;;18.45;6.90;;;28.60;25.00;;;;;;5054600;28;20468;-60
2022/03/24 12:18:55;;;;;;;12.10;9.73;;;28.50;24.30;;;;;;5054197;28;20036;-60
2022/03/24 12:21:27;;;;;;;10.27;7.13;;;28.00;24.40;;;;;;5054422;28;20056;-60
2022/03/24 12:24:06;;;;;;;21.45;7.28;;;28.80;25.50;;;;;;5052793;28;20025;-60
2022/03/24 12:26:37;;;;;;;13.02;7.85;;;30.00;25.30;;;;;;5054378;28;20443;-60
2022/03/24 12:29:12;;;;;;;11.18;7.32;;;30.00;25.00;;;;;;5053963;28;20029;-60
2022/03/24 12:32:01;;;;;;;11.43;7.40;;;30.60;25.80;;;;;;5054531;28;20470;-60
2022/03/24 12:34:39;;;;;;;8.70;7.63;;;30.10;24.00;;;;;;5054251;28;20107;-60
2022/03/24 12:37:06;;;;;;;10.20;8.63;;;30.20;24.60;;;;;;5053902;28;20353;-60
2022/03/24 12:39:37;;;;;;;10.38;7.22;;;29.40;24.90;;;;;;5054124;28;20080;-60
2022/03/24 12:42:15;;;;;;;11.10;7.72;;;28.90;24.70;;;;;;5052742;28;20040;-60
2022/03/24 12:44:54;;;;;;;12.02;8.02;;;29.20;24.70;;;;;;5053817;28;20017;-60
2022/03/24 12:47:34;;;;;;;19.05;8.07;;;29.10;24.90;;;;;;5055533;28;20024;-60
2022/03/24 12:50:28;;;;;;;22.00;7.70;;;29.40;24.50;;;;;;5073940;28;20051;-61